sensor_id;sensor_type;location;lat;lon;timestamp;temperature;humidity
38684;DHT22;24910;53.248;-6.134;2023-05-13T00:01:24;12.50;84.80
38684;DHT22;24910;53.248;-6.134;2023-05-13T00:03:54;12.50;84.80
38684;DHT22;24910;53.248;-6.134;2023-05-13T00:06:23;12.40;84.80
38684;DHT22;24910;53.248;-6.134;2023-05-13T00:08:52;12.40;84.80
38684;DHT22;24910;53.248;-6.134;2023-05-13T00:11:21;12.40;84.80
38684;DHT22;24910;53.248;-6.134;2023-05-13T00:13:50;12.30;84.70
38684;DHT22;24910;53.248;-6.134;2023-05-13T00:16:20;12.30;84.80
38684;DHT22;24910;53.248;-6.134;2023-05-13T00:18:54;12.30;84.70
38684;DHT22;24910;53.248;-6.134;2023-05-13T00:21:23;12.30;84.70
38684;DHT22;24910;53.248;-6.134;2023-05-13T00:23:53;12.30;84.60
38684;DHT22;24910;53.248;-6.134;2023-05-13T00:26:22;12.30;84.60
38684;DHT22;24910;53.248;-6.134;2023-05-13T00:28:51;12.30;84.60
38684;DHT22;24910;53.248;-6.134;2023-05-13T00:31:21;12.20;84.60
38684;DHT22;24910;53.248;-6.134;2023-05-13T00:33:51;12.20;84.70
38684;DHT22;24910;53.248;-6.134;2023-05-13T00:36:20;12.20;84.80
38684;DHT22;24910;53.248;-6.134;2023-05-13T00:38:49;12.20;84.80
38684;DHT22;24910;53.248;-6.134;2023-05-13T00:41:18;12.20;84.80
38684;DHT22;24910;53.248;-6.134;2023-05-13T00:43:48;12.20;84.90
38684;DHT22;24910;53.248;-6.134;2023-05-13T00:46:17;12.20;85.00
38684;DHT22;24910;53.248;-6.134;2023-05-13T00:48:48;12.20;85.00
38684;DHT22;24910;53.248;-6.134;2023-05-13T00:51:17;12.20;85.00
38684;DHT22;24910;53.248;-6.134;2023-05-13T00:53:47;12.10;85.00
38684;DHT22;24910;53.248;-6.134;2023-05-13T00:56:18;12.20;85.00
38684;DHT22;24910;53.248;-6.134;2023-05-13T00:58:48;12.10;84.90
38684;DHT22;24910;53.248;-6.134;2023-05-13T01:01:29;12.10;84.80
38684;DHT22;24910;53.248;-6.134;2023-05-13T01:04:12;12.10;84.60
38684;DHT22;24910;53.248;-6.134;2023-05-13T01:06:51;12.10;84.70
38684;DHT22;24910;53.248;-6.134;2023-05-13T01:09:32;12.10;84.80
38684;DHT22;24910;53.248;-6.134;2023-05-13T01:12:07;12.00;84.80
38684;DHT22;24910;53.248;-6.134;2023-05-13T01:14:43;11.90;84.80
38684;DHT22;24910;53.248;-6.134;2023-05-13T01:17:18;12.00;85.00
38684;DHT22;24910;53.248;-6.134;2023-05-13T01:19:52;11.90;84.90
38684;DHT22;24910;53.248;-6.134;2023-05-13T01:22:23;11.90;84.90
38684;DHT22;24910;53.248;-6.134;2023-05-13T01:24:52;11.90;84.90
38684;DHT22;24910;53.248;-6.134;2023-05-13T01:27:22;11.80;85.00
38684;DHT22;24910;53.248;-6.134;2023-05-13T01:29:52;11.80;85.00
38684;DHT22;24910;53.248;-6.134;2023-05-13T01:32:27;11.80;85.10
38684;DHT22;24910;53.248;-6.134;2023-05-13T01:34:56;11.80;85.10
38684;DHT22;24910;53.248;-6.134;2023-05-13T01:37:28;11.80;85.10
38684;DHT22;24910;53.248;-6.134;2023-05-13T01:39:58;11.80;85.20
38684;DHT22;24910;53.248;-6.134;2023-05-13T01:42:29;11.80;85.30
38684;DHT22;24910;53.248;-6.134;2023-05-13T01:44:58;11.80;85.20
38684;DHT22;24910;53.248;-6.134;2023-05-13T01:47:28;11.80;85.00
38684;DHT22;24910;53.248;-6.134;2023-05-13T01:49:57;11.80;85.00
38684;DHT22;24910;53.248;-6.134;2023-05-13T01:52:29;11.70;84.80
38684;DHT22;24910;53.248;-6.134;2023-05-13T01:54:58;11.80;84.90
38684;DHT22;24910;53.248;-6.134;2023-05-13T01:57:27;11.70;84.80
38684;DHT22;24910;53.248;-6.134;2023-05-13T01:59:57;11.70;85.00
38684;DHT22;24910;53.248;-6.134;2023-05-13T02:02:26;11.70;85.20
38684;DHT22;24910;53.248;-6.134;2023-05-13T02:04:55;11.70;85.30
38684;DHT22;24910;53.248;-6.134;2023-05-13T02:07:24;11.70;85.40
38684;DHT22;24910;53.248;-6.134;2023-05-13T02:09:55;11.60;85.50
38684;DHT22;24910;53.248;-6.134;2023-05-13T02:12:26;11.60;85.50
38684;DHT22;24910;53.248;-6.134;2023-05-13T02:14:55;11.60;85.60
38684;DHT22;24910;53.248;-6.134;2023-05-13T02:17:24;11.60;85.70
38684;DHT22;24910;53.248;-6.134;2023-05-13T02:19:53;11.60;85.70
38684;DHT22;24910;53.248;-6.134;2023-05-13T02:22:23;11.60;85.70
38684;DHT22;24910;53.248;-6.134;2023-05-13T02:24:52;11.60;85.60
38684;DHT22;24910;53.248;-6.134;2023-05-13T02:27:22;11.60;85.60
38684;DHT22;24910;53.248;-6.134;2023-05-13T02:29:52;11.60;85.60
38684;DHT22;24910;53.248;-6.134;2023-05-13T02:32:21;11.60;85.60
38684;DHT22;24910;53.248;-6.134;2023-05-13T02:34:50;11.60;85.60
38684;DHT22;24910;53.248;-6.134;2023-05-13T02:37:20;11.50;85.50
38684;DHT22;24910;53.248;-6.134;2023-05-13T02:39:57;11.50;85.50
38684;DHT22;24910;53.248;-6.134;2023-05-13T02:42:28;11.50;85.50
38684;DHT22;24910;53.248;-6.134;2023-05-13T02:44:57;11.50;85.60
38684;DHT22;24910;53.248;-6.134;2023-05-13T02:47:29;11.50;85.50
38684;DHT22;24910;53.248;-6.134;2023-05-13T02:50:03;11.50;85.40
38684;DHT22;24910;53.248;-6.134;2023-05-13T02:52:33;11.50;85.40
38684;DHT22;24910;53.248;-6.134;2023-05-13T02:55:04;11.50;85.50
38684;DHT22;24910;53.248;-6.134;2023-05-13T02:57:35;11.50;85.40
38684;DHT22;24910;53.248;-6.134;2023-05-13T03:00:05;11.50;85.50
38684;DHT22;24910;53.248;-6.134;2023-05-13T03:02:34;11.50;85.50
38684;DHT22;24910;53.248;-6.134;2023-05-13T03:05:04;11.50;85.40
38684;DHT22;24910;53.248;-6.134;2023-05-13T03:07:34;11.50;85.40
38684;DHT22;24910;53.248;-6.134;2023-05-13T03:10:05;11.40;85.40
38684;DHT22;24910;53.248;-6.134;2023-05-13T03:12:35;11.40;85.40
38684;DHT22;24910;53.248;-6.134;2023-05-13T03:15:05;11.40;85.50
38684;DHT22;24910;53.248;-6.134;2023-05-13T03:17:35;11.40;85.50
38684;DHT22;24910;53.248;-6.134;2023-05-13T03:20:06;11.40;85.40
38684;DHT22;24910;53.248;-6.134;2023-05-13T03:22:35;11.40;85.40
38684;DHT22;24910;53.248;-6.134;2023-05-13T03:25:06;11.40;85.50
38684;DHT22;24910;53.248;-6.134;2023-05-13T03:27:43;11.30;85.60
38684;DHT22;24910;53.248;-6.134;2023-05-13T03:30:13;11.30;85.70
38684;DHT22;24910;53.248;-6.134;2023-05-13T03:32:48;11.30;85.80
38684;DHT22;24910;53.248;-6.134;2023-05-13T03:35:17;11.30;85.80
38684;DHT22;24910;53.248;-6.134;2023-05-13T03:37:47;11.30;85.80
38684;DHT22;24910;53.248;-6.134;2023-05-13T03:40:17;11.30;85.90
38684;DHT22;24910;53.248;-6.134;2023-05-13T03:42:48;11.30;85.90
38684;DHT22;24910;53.248;-6.134;2023-05-13T03:45:20;11.30;85.90
38684;DHT22;24910;53.248;-6.134;2023-05-13T03:47:52;11.30;85.90
38684;DHT22;24910;53.248;-6.134;2023-05-13T03:50:23;11.30;86.00
38684;DHT22;24910;53.248;-6.134;2023-05-13T03:52:52;11.30;86.20
38684;DHT22;24910;53.248;-6.134;2023-05-13T03:55:22;11.30;85.90
38684;DHT22;24910;53.248;-6.134;2023-05-13T03:57:52;11.30;86.00
38684;DHT22;24910;53.248;-6.134;2023-05-13T04:00:22;11.40;86.20
38684;DHT22;24910;53.248;-6.134;2023-05-13T04:02:51;11.30;86.20
38684;DHT22;24910;53.248;-6.134;2023-05-13T04:05:20;11.30;86.20
38684;DHT22;24910;53.248;-6.134;2023-05-13T04:07:49;11.40;86.30
38684;DHT22;24910;53.248;-6.134;2023-05-13T04:10:19;11.40;86.30
38684;DHT22;24910;53.248;-6.134;2023-05-13T04:12:48;11.30;86.30
38684;DHT22;24910;53.248;-6.134;2023-05-13T04:15:19;11.30;86.30
38684;DHT22;24910;53.248;-6.134;2023-05-13T04:17:48;11.30;86.30
38684;DHT22;24910;53.248;-6.134;2023-05-13T04:20:17;11.30;86.30
38684;DHT22;24910;53.248;-6.134;2023-05-13T04:22:47;11.20;86.30
38684;DHT22;24910;53.248;-6.134;2023-05-13T04:25:16;11.30;86.40
38684;DHT22;24910;53.248;-6.134;2023-05-13T04:27:45;11.30;86.50
38684;DHT22;24910;53.248;-6.134;2023-05-13T04:30:24;11.20;86.60
38684;DHT22;24910;53.248;-6.134;2023-05-13T04:32:53;11.30;87.00
38684;DHT22;24910;53.248;-6.134;2023-05-13T04:35:23;11.20;87.10
38684;DHT22;24910;53.248;-6.134;2023-05-13T04:37:56;11.30;87.50
38684;DHT22;24910;53.248;-6.134;2023-05-13T04:40:25;11.30;87.80
38684;DHT22;24910;53.248;-6.134;2023-05-13T04:42:57;11.30;88.00
38684;DHT22;24910;53.248;-6.134;2023-05-13T04:45:34;11.30;88.30
38684;DHT22;24910;53.248;-6.134;2023-05-13T04:48:07;11.40;88.80
38684;DHT22;24910;53.248;-6.134;2023-05-13T04:50:37;11.40;89.10
38684;DHT22;24910;53.248;-6.134;2023-05-13T04:53:08;11.50;89.60
38684;DHT22;24910;53.248;-6.134;2023-05-13T04:55:37;11.50;89.90
38684;DHT22;24910;53.248;-6.134;2023-05-13T04:58:06;11.60;90.10
38684;DHT22;24910;53.248;-6.134;2023-05-13T05:00:37;11.70;90.30
38684;DHT22;24910;53.248;-6.134;2023-05-13T05:03:06;11.70;90.40
38684;DHT22;24910;53.248;-6.134;2023-05-13T05:05:36;11.80;90.60
38684;DHT22;24910;53.248;-6.134;2023-05-13T05:08:06;11.80;90.70
38684;DHT22;24910;53.248;-6.134;2023-05-13T05:10:36;11.80;90.90
38684;DHT22;24910;53.248;-6.134;2023-05-13T05:13:08;11.80;91.10
38684;DHT22;24910;53.248;-6.134;2023-05-13T05:15:39;11.90;91.20
38684;DHT22;24910;53.248;-6.134;2023-05-13T05:18:09;11.90;91.30
38684;DHT22;24910;53.248;-6.134;2023-05-13T05:20:41;12.00;91.30
38684;DHT22;24910;53.248;-6.134;2023-05-13T05:23:15;12.10;91.40
38684;DHT22;24910;53.248;-6.134;2023-05-13T05:25:44;12.10;91.40
38684;DHT22;24910;53.248;-6.134;2023-05-13T05:28:17;12.20;91.50
38684;DHT22;24910;53.248;-6.134;2023-05-13T05:30:47;12.30;91.50
38684;DHT22;24910;53.248;-6.134;2023-05-13T05:33:26;12.30;91.50
38684;DHT22;24910;53.248;-6.134;2023-05-13T05:35:55;12.30;91.60
38684;DHT22;24910;53.248;-6.134;2023-05-13T05:38:24;12.40;91.60
38684;DHT22;24910;53.248;-6.134;2023-05-13T05:40:55;12.40;91.70
38684;DHT22;24910;53.248;-6.134;2023-05-13T05:43:24;12.40;91.70
38684;DHT22;24910;53.248;-6.134;2023-05-13T05:45:55;12.50;91.70
38684;DHT22;24910;53.248;-6.134;2023-05-13T05:48:31;12.50;91.80
38684;DHT22;24910;53.248;-6.134;2023-05-13T05:51:02;12.50;91.70
38684;DHT22;24910;53.248;-6.134;2023-05-13T05:53:35;12.50;91.80
38684;DHT22;24910;53.248;-6.134;2023-05-13T05:56:10;12.60;91.80
38684;DHT22;24910;53.248;-6.134;2023-05-13T05:58:39;12.60;91.80
38684;DHT22;24910;53.248;-6.134;2023-05-13T06:01:10;12.60;91.90
38684;DHT22;24910;53.248;-6.134;2023-05-13T06:03:39;12.50;91.90
38684;DHT22;24910;53.248;-6.134;2023-05-13T06:06:08;12.60;92.00
38684;DHT22;24910;53.248;-6.134;2023-05-13T06:08:37;12.60;92.20
38684;DHT22;24910;53.248;-6.134;2023-05-13T06:11:07;12.60;92.20
38684;DHT22;24910;53.248;-6.134;2023-05-13T06:13:36;12.60;92.60
38684;DHT22;24910;53.248;-6.134;2023-05-13T06:16:06;12.60;92.30
38684;DHT22;24910;53.248;-6.134;2023-05-13T06:18:39;12.70;92.30
38684;DHT22;24910;53.248;-6.134;2023-05-13T06:21:08;12.70;92.30
38684;DHT22;24910;53.248;-6.134;2023-05-13T06:23:37;12.70;92.40
38684;DHT22;24910;53.248;-6.134;2023-05-13T06:26:06;12.70;92.40
38684;DHT22;24910;53.248;-6.134;2023-05-13T06:28:36;12.60;92.40
38684;DHT22;24910;53.248;-6.134;2023-05-13T06:31:05;12.50;92.50
38684;DHT22;24910;53.248;-6.134;2023-05-13T06:33:36;12.50;92.60
38684;DHT22;24910;53.248;-6.134;2023-05-13T06:36:07;12.40;92.70
38684;DHT22;24910;53.248;-6.134;2023-05-13T06:38:37;12.40;92.80
38684;DHT22;24910;53.248;-6.134;2023-05-13T06:41:06;12.40;92.90
38684;DHT22;24910;53.248;-6.134;2023-05-13T06:43:37;12.40;92.90
38684;DHT22;24910;53.248;-6.134;2023-05-13T06:46:14;12.40;92.90
38684;DHT22;24910;53.248;-6.134;2023-05-13T06:48:43;12.40;93.00
38684;DHT22;24910;53.248;-6.134;2023-05-13T06:51:13;12.40;93.00
38684;DHT22;24910;53.248;-6.134;2023-05-13T06:53:43;12.40;92.90
38684;DHT22;24910;53.248;-6.134;2023-05-13T06:56:12;12.30;93.00
38684;DHT22;24910;53.248;-6.134;2023-05-13T06:58:41;12.40;93.10
38684;DHT22;24910;53.248;-6.134;2023-05-13T07:01:10;12.40;93.10
38684;DHT22;24910;53.248;-6.134;2023-05-13T07:03:39;12.40;93.10
38684;DHT22;24910;53.248;-6.134;2023-05-13T07:06:09;12.50;93.10
38684;DHT22;24910;53.248;-6.134;2023-05-13T07:08:39;12.60;93.10
38684;DHT22;24910;53.248;-6.134;2023-05-13T07:11:09;12.60;93.10
38684;DHT22;24910;53.248;-6.134;2023-05-13T07:13:38;12.70;93.00
38684;DHT22;24910;53.248;-6.134;2023-05-13T07:16:07;12.80;93.00
38684;DHT22;24910;53.248;-6.134;2023-05-13T07:18:36;12.90;93.00
38684;DHT22;24910;53.248;-6.134;2023-05-13T07:21:05;12.90;93.00
38684;DHT22;24910;53.248;-6.134;2023-05-13T07:23:34;13.00;93.00
38684;DHT22;24910;53.248;-6.134;2023-05-13T07:26:05;13.00;93.00
38684;DHT22;24910;53.248;-6.134;2023-05-13T07:28:34;13.10;93.00
38684;DHT22;24910;53.248;-6.134;2023-05-13T07:31:03;13.20;93.00
38684;DHT22;24910;53.248;-6.134;2023-05-13T07:33:33;13.20;92.90
38684;DHT22;24910;53.248;-6.134;2023-05-13T07:36:02;13.30;92.90
38684;DHT22;24910;53.248;-6.134;2023-05-13T07:38:32;13.30;92.80
38684;DHT22;24910;53.248;-6.134;2023-05-13T07:41:01;13.30;92.80
38684;DHT22;24910;53.248;-6.134;2023-05-13T07:43:32;13.30;92.80
38684;DHT22;24910;53.248;-6.134;2023-05-13T07:46:01;13.40;92.70
38684;DHT22;24910;53.248;-6.134;2023-05-13T07:48:31;13.40;92.70
38684;DHT22;24910;53.248;-6.134;2023-05-13T07:51:00;13.40;92.70
38684;DHT22;24910;53.248;-6.134;2023-05-13T07:53:29;13.40;92.70
38684;DHT22;24910;53.248;-6.134;2023-05-13T07:55:58;13.50;92.70
38684;DHT22;24910;53.248;-6.134;2023-05-13T07:58:28;13.50;92.60
38684;DHT22;24910;53.248;-6.134;2023-05-13T08:00:58;13.60;92.60
38684;DHT22;24910;53.248;-6.134;2023-05-13T08:03:27;13.60;92.50
38684;DHT22;24910;53.248;-6.134;2023-05-13T08:05:56;13.60;92.40
38684;DHT22;24910;53.248;-6.134;2023-05-13T08:08:25;13.50;92.40
38684;DHT22;24910;53.248;-6.134;2023-05-13T08:10:55;13.50;92.40
38684;DHT22;24910;53.248;-6.134;2023-05-13T08:13:24;13.60;92.50
38684;DHT22;24910;53.248;-6.134;2023-05-13T08:15:53;13.70;92.50
38684;DHT22;24910;53.248;-6.134;2023-05-13T08:18:24;13.80;92.40
38684;DHT22;24910;53.248;-6.134;2023-05-13T08:20:53;13.80;92.30
38684;DHT22;24910;53.248;-6.134;2023-05-13T08:23:22;13.90;92.20
38684;DHT22;24910;53.248;-6.134;2023-05-13T08:26:10;14.00;92.20
38684;DHT22;24910;53.248;-6.134;2023-05-13T08:28:39;14.10;92.20
38684;DHT22;24910;53.248;-6.134;2023-05-13T08:31:10;14.10;92.10
38684;DHT22;24910;53.248;-6.134;2023-05-13T08:33:41;14.10;92.00
38684;DHT22;24910;53.248;-6.134;2023-05-13T08:36:12;14.10;91.90
38684;DHT22;24910;53.248;-6.134;2023-05-13T08:38:42;14.00;92.00
38684;DHT22;24910;53.248;-6.134;2023-05-13T08:41:12;13.90;92.00
38684;DHT22;24910;53.248;-6.134;2023-05-13T08:43:42;13.80;92.00
38684;DHT22;24910;53.248;-6.134;2023-05-13T08:46:11;13.80;92.00
38684;DHT22;24910;53.248;-6.134;2023-05-13T08:48:43;13.80;92.00
38684;DHT22;24910;53.248;-6.134;2023-05-13T08:51:12;13.80;92.00
38684;DHT22;24910;53.248;-6.134;2023-05-13T08:53:43;13.80;92.00
38684;DHT22;24910;53.248;-6.134;2023-05-13T08:56:14;13.80;91.90
38684;DHT22;24910;53.248;-6.134;2023-05-13T08:58:43;13.90;91.90
38684;DHT22;24910;53.248;-6.134;2023-05-13T09:01:12;13.90;92.20
38684;DHT22;24910;53.248;-6.134;2023-05-13T09:03:51;14.00;91.80
38684;DHT22;24910;53.248;-6.134;2023-05-13T09:06:22;14.10;91.70
38684;DHT22;24910;53.248;-6.134;2023-05-13T09:08:51;14.30;91.60
38684;DHT22;24910;53.248;-6.134;2023-05-13T09:11:21;14.40;91.50
38684;DHT22;24910;53.248;-6.134;2023-05-13T09:13:57;14.50;91.50
38684;DHT22;24910;53.248;-6.134;2023-05-13T09:16:27;14.50;91.50
38684;DHT22;24910;53.248;-6.134;2023-05-13T09:18:59;14.60;91.50
38684;DHT22;24910;53.248;-6.134;2023-05-13T09:21:28;14.70;91.40
38684;DHT22;24910;53.248;-6.134;2023-05-13T09:24:11;14.80;91.40
38684;DHT22;24910;53.248;-6.134;2023-05-13T09:26:45;14.80;91.20
38684;DHT22;24910;53.248;-6.134;2023-05-13T09:29:19;14.80;91.20
38684;DHT22;24910;53.248;-6.134;2023-05-13T09:31:50;15.00;91.00
38684;DHT22;24910;53.248;-6.134;2023-05-13T09:34:28;15.00;90.90
38684;DHT22;24910;53.248;-6.134;2023-05-13T09:37:00;14.90;90.70
38684;DHT22;24910;53.248;-6.134;2023-05-13T09:39:31;15.00;90.70
38684;DHT22;24910;53.248;-6.134;2023-05-13T09:42:01;15.10;90.70
38684;DHT22;24910;53.248;-6.134;2023-05-13T09:44:32;15.30;90.60
38684;DHT22;24910;53.248;-6.134;2023-05-13T09:47:01;15.40;90.40
38684;DHT22;24910;53.248;-6.134;2023-05-13T09:49:32;15.40;90.20
38684;DHT22;24910;53.248;-6.134;2023-05-13T09:52:01;15.40;90.00
38684;DHT22;24910;53.248;-6.134;2023-05-13T09:54:36;15.40;90.00
38684;DHT22;24910;53.248;-6.134;2023-05-13T09:57:06;15.50;89.90
38684;DHT22;24910;53.248;-6.134;2023-05-13T09:59:35;15.70;89.50
38684;DHT22;24910;53.248;-6.134;2023-05-13T10:02:05;15.90;89.20
38684;DHT22;24910;53.248;-6.134;2023-05-13T10:04:36;16.10;89.00
38684;DHT22;24910;53.248;-6.134;2023-05-13T10:07:06;16.30;88.80
38684;DHT22;24910;53.248;-6.134;2023-05-13T10:09:36;16.50;88.00
38684;DHT22;24910;53.248;-6.134;2023-05-13T10:12:07;16.50;87.40
38684;DHT22;24910;53.248;-6.134;2023-05-13T10:14:37;16.40;86.80
38684;DHT22;24910;53.248;-6.134;2023-05-13T10:17:08;16.40;86.50
38684;DHT22;24910;53.248;-6.134;2023-05-13T10:19:39;16.40;86.40
38684;DHT22;24910;53.248;-6.134;2023-05-13T10:22:08;16.50;86.20
38684;DHT22;24910;53.248;-6.134;2023-05-13T10:24:38;16.70;86.20
38684;DHT22;24910;53.248;-6.134;2023-05-13T10:27:10;16.90;86.10
38684;DHT22;24910;53.248;-6.134;2023-05-13T10:29:39;17.10;85.60
38684;DHT22;24910;53.248;-6.134;2023-05-13T10:32:09;17.30;85.10
38684;DHT22;24910;53.248;-6.134;2023-05-13T10:34:41;17.40;84.50
38684;DHT22;24910;53.248;-6.134;2023-05-13T10:37:47;17.50;83.80
38684;DHT22;24910;53.248;-6.134;2023-05-13T10:43:26;17.60;82.20
38684;DHT22;24910;53.248;-6.134;2023-05-13T10:45:57;17.60;82.30
38684;DHT22;24910;53.248;-6.134;2023-05-13T10:48:30;17.80;82.30
38684;DHT22;24910;53.248;-6.134;2023-05-13T10:51:07;17.80;81.70
38684;DHT22;24910;53.248;-6.134;2023-05-13T10:53:42;17.60;80.80
38684;DHT22;24910;53.248;-6.134;2023-05-13T10:56:11;17.30;80.80
38684;DHT22;24910;53.248;-6.134;2023-05-13T10:58:40;17.20;81.10
38684;DHT22;24910;53.248;-6.134;2023-05-13T11:01:15;17.10;81.00
38684;DHT22;24910;53.248;-6.134;2023-05-13T11:03:51;17.00;81.00
38684;DHT22;24910;53.248;-6.134;2023-05-13T11:06:26;16.70;81.00
38684;DHT22;24910;53.248;-6.134;2023-05-13T11:08:57;16.60;81.30
38684;DHT22;24910;53.248;-6.134;2023-05-13T11:11:29;16.50;81.60
38684;DHT22;24910;53.248;-6.134;2023-05-13T11:14:14;16.40;81.80
38684;DHT22;24910;53.248;-6.134;2023-05-13T11:16:45;16.30;82.00
38684;DHT22;24910;53.248;-6.134;2023-05-13T11:19:20;16.20;82.30
38684;DHT22;24910;53.248;-6.134;2023-05-13T11:21:52;16.20;82.70
38684;DHT22;24910;53.248;-6.134;2023-05-13T11:24:22;16.20;82.90
38684;DHT22;24910;53.248;-6.134;2023-05-13T11:26:53;16.10;82.80
38684;DHT22;24910;53.248;-6.134;2023-05-13T11:29:30;15.90;82.90
38684;DHT22;24910;53.248;-6.134;2023-05-13T11:31:59;15.90;83.30
38684;DHT22;24910;53.248;-6.134;2023-05-13T11:34:30;15.90;83.40
38684;DHT22;24910;53.248;-6.134;2023-05-13T11:37:08;15.80;83.60
38684;DHT22;24910;53.248;-6.134;2023-05-13T11:39:39;15.70;83.90
38684;DHT22;24910;53.248;-6.134;2023-05-13T11:42:09;15.80;84.10
38684;DHT22;24910;53.248;-6.134;2023-05-13T11:44:44;16.00;84.20
38684;DHT22;24910;53.248;-6.134;2023-05-13T11:47:15;16.00;84.10
38684;DHT22;24910;53.248;-6.134;2023-05-13T11:49:52;16.20;84.10
38684;DHT22;24910;53.248;-6.134;2023-05-13T11:52:23;16.20;84.00
38684;DHT22;24910;53.248;-6.134;2023-05-13T11:54:56;16.30;83.70
38684;DHT22;24910;53.248;-6.134;2023-05-13T11:57:27;16.30;83.60
38684;DHT22;24910;53.248;-6.134;2023-05-13T12:00:02;16.20;83.30
38684;DHT22;24910;53.248;-6.134;2023-05-13T12:02:36;16.20;83.30
38684;DHT22;24910;53.248;-6.134;2023-05-13T12:05:08;16.10;83.20
38684;DHT22;24910;53.248;-6.134;2023-05-13T12:07:39;15.90;83.40
38684;DHT22;24910;53.248;-6.134;2023-05-13T12:10:08;15.80;83.80
38684;DHT22;24910;53.248;-6.134;2023-05-13T12:12:39;15.90;84.00
38684;DHT22;24910;53.248;-6.134;2023-05-13T12:15:10;16.00;84.10
38684;DHT22;24910;53.248;-6.134;2023-05-13T12:17:40;16.10;83.90
38684;DHT22;24910;53.248;-6.134;2023-05-13T12:20:11;16.20;84.10
38684;DHT22;24910;53.248;-6.134;2023-05-13T12:22:53;16.30;84.00
38684;DHT22;24910;53.248;-6.134;2023-05-13T12:25:41;16.40;83.80
38684;DHT22;24910;53.248;-6.134;2023-05-13T12:28:12;16.40;83.20
38684;DHT22;24910;53.248;-6.134;2023-05-13T12:30:50;16.30;83.20
38684;DHT22;24910;53.248;-6.134;2023-05-13T12:33:21;16.30;83.10
38684;DHT22;24910;53.248;-6.134;2023-05-13T12:38:55;16.40;83.30
38684;DHT22;24910;53.248;-6.134;2023-05-13T12:41:28;16.50;83.40
38684;DHT22;24910;53.248;-6.134;2023-05-13T12:43:59;16.60;83.30
38684;DHT22;24910;53.248;-6.134;2023-05-13T12:46:28;16.70;83.10
38684;DHT22;24910;53.248;-6.134;2023-05-13T12:49:00;16.80;82.70
38684;DHT22;24910;53.248;-6.134;2023-05-13T12:51:30;16.90;82.40
38684;DHT22;24910;53.248;-6.134;2023-05-13T12:54:02;16.90;82.20
38684;DHT22;24910;53.248;-6.134;2023-05-13T12:56:31;17.00;81.90
38684;DHT22;24910;53.248;-6.134;2023-05-13T12:59:00;16.90;81.70
38684;DHT22;24910;53.248;-6.134;2023-05-13T13:01:29;16.90;81.90
38684;DHT22;24910;53.248;-6.134;2023-05-13T13:03:58;16.90;81.90
38684;DHT22;24910;53.248;-6.134;2023-05-13T13:06:29;16.80;81.80
38684;DHT22;24910;53.248;-6.134;2023-05-13T13:08:59;16.80;82.00
38684;DHT22;24910;53.248;-6.134;2023-05-13T13:11:29;16.80;81.80
38684;DHT22;24910;53.248;-6.134;2023-05-13T13:13:58;16.80;81.70
38684;DHT22;24910;53.248;-6.134;2023-05-13T13:16:28;16.70;81.70
38684;DHT22;24910;53.248;-6.134;2023-05-13T13:18:57;16.60;81.80
38684;DHT22;24910;53.248;-6.134;2023-05-13T13:21:28;16.50;81.50
38684;DHT22;24910;53.248;-6.134;2023-05-13T13:23:58;16.40;81.90
38684;DHT22;24910;53.248;-6.134;2023-05-13T13:26:29;16.40;82.10
38684;DHT22;24910;53.248;-6.134;2023-05-13T13:28:58;16.30;82.00
38684;DHT22;24910;53.248;-6.134;2023-05-13T13:31:27;16.30;82.20
38684;DHT22;24910;53.248;-6.134;2023-05-13T13:33:56;16.40;82.30
38684;DHT22;24910;53.248;-6.134;2023-05-13T13:36:30;16.30;82.10
38684;DHT22;24910;53.248;-6.134;2023-05-13T13:38:59;16.30;82.30
38684;DHT22;24910;53.248;-6.134;2023-05-13T13:41:30;16.30;82.50
38684;DHT22;24910;53.248;-6.134;2023-05-13T13:43:59;16.40;82.30
38684;DHT22;24910;53.248;-6.134;2023-05-13T13:46:28;16.20;82.00
38684;DHT22;24910;53.248;-6.134;2023-05-13T13:48:57;16.10;82.00
38684;DHT22;24910;53.248;-6.134;2023-05-13T13:51:37;16.00;82.50
38684;DHT22;24910;53.248;-6.134;2023-05-13T13:54:06;16.00;82.90
38684;DHT22;24910;53.248;-6.134;2023-05-13T13:56:37;16.00;83.10
38684;DHT22;24910;53.248;-6.134;2023-05-13T13:59:06;16.00;83.20
38684;DHT22;24910;53.248;-6.134;2023-05-13T14:01:35;16.10;83.50
38684;DHT22;24910;53.248;-6.134;2023-05-13T14:04:09;16.20;83.30
38684;DHT22;24910;53.248;-6.134;2023-05-13T14:06:39;16.20;83.10
38684;DHT22;24910;53.248;-6.134;2023-05-13T14:09:11;16.20;83.10
38684;DHT22;24910;53.248;-6.134;2023-05-13T14:11:41;16.10;82.90
38684;DHT22;24910;53.248;-6.134;2023-05-13T14:14:10;16.00;83.00
38684;DHT22;24910;53.248;-6.134;2023-05-13T14:16:40;16.00;83.20
38684;DHT22;24910;53.248;-6.134;2023-05-13T14:19:09;16.00;83.20
38684;DHT22;24910;53.248;-6.134;2023-05-13T14:21:39;16.10;83.20
38684;DHT22;24910;53.248;-6.134;2023-05-13T14:24:08;16.20;83.30
38684;DHT22;24910;53.248;-6.134;2023-05-13T14:26:38;16.10;83.00
38684;DHT22;24910;53.248;-6.134;2023-05-13T14:29:09;16.10;83.00
38684;DHT22;24910;53.248;-6.134;2023-05-13T14:31:38;16.00;82.90
38684;DHT22;24910;53.248;-6.134;2023-05-13T14:34:07;16.00;83.30
38684;DHT22;24910;53.248;-6.134;2023-05-13T14:36:36;16.00;83.60
38684;DHT22;24910;53.248;-6.134;2023-05-13T14:39:05;16.20;83.70
38684;DHT22;24910;53.248;-6.134;2023-05-13T14:41:36;16.30;83.40
38684;DHT22;24910;53.248;-6.134;2023-05-13T14:44:06;16.30;83.10
38684;DHT22;24910;53.248;-6.134;2023-05-13T14:46:37;16.40;83.70
38684;DHT22;24910;53.248;-6.134;2023-05-13T14:49:08;16.40;82.90
38684;DHT22;24910;53.248;-6.134;2023-05-13T14:51:37;16.40;82.80
38684;DHT22;24910;53.248;-6.134;2023-05-13T14:54:06;16.50;82.60
38684;DHT22;24910;53.248;-6.134;2023-05-13T14:56:35;16.50;82.50
38684;DHT22;24910;53.248;-6.134;2023-05-13T14:59:04;16.60;82.40
38684;DHT22;24910;53.248;-6.134;2023-05-13T15:01:34;16.60;82.30
38684;DHT22;24910;53.248;-6.134;2023-05-13T15:04:05;16.60;82.20
38684;DHT22;24910;53.248;-6.134;2023-05-13T15:06:36;16.60;82.30
38684;DHT22;24910;53.248;-6.134;2023-05-13T15:09:05;16.60;82.10
38684;DHT22;24910;53.248;-6.134;2023-05-13T15:11:34;16.60;82.10
38684;DHT22;24910;53.248;-6.134;2023-05-13T15:14:05;16.60;82.00
38684;DHT22;24910;53.248;-6.134;2023-05-13T15:16:34;16.60;81.80
38684;DHT22;24910;53.248;-6.134;2023-05-13T15:19:06;16.60;81.80
38684;DHT22;24910;53.248;-6.134;2023-05-13T15:21:36;16.50;81.60
38684;DHT22;24910;53.248;-6.134;2023-05-13T15:24:05;16.50;81.60
38684;DHT22;24910;53.248;-6.134;2023-05-13T15:26:43;16.40;81.60
38684;DHT22;24910;53.248;-6.134;2023-05-13T15:29:13;16.30;82.00
38684;DHT22;24910;53.248;-6.134;2023-05-13T15:31:43;16.30;82.00
38684;DHT22;24910;53.248;-6.134;2023-05-13T15:34:13;16.30;82.10
38684;DHT22;24910;53.248;-6.134;2023-05-13T15:36:43;16.30;82.10
38684;DHT22;24910;53.248;-6.134;2023-05-13T15:39:12;16.30;82.30
38684;DHT22;24910;53.248;-6.134;2023-05-13T15:41:43;16.20;82.60
38684;DHT22;24910;53.248;-6.134;2023-05-13T15:44:12;16.20;82.40